Time;durP1;ratioP1;P1;durP2;ratioP2;P2;SDS_P1;SDS_P2;PMS_P1;PMS_P2;Temp;Humidity;BMP_temperature;BMP_pressure;BME280_temperature;BME280_humidity;BME280_pressure;Samples;Min_cycle;Max_cycle;Signal;HPM_P1;HPM_P2
2021/08/02 00:01:02;;;;;;;0.50;0.50;;;12.60;89.30;;;;;;2048335;29;20180;-67
2021/08/02 00:02:08;;;;;;;1.25;0.93;;;12.60;89.00;;;;;;2049508;28;20191;-67
2021/08/02 00:03:18;;;;;;;0.57;0.57;;;12.60;89.10;;;;;;2056364;28;20183;-67
2021/08/02 00:04:24;;;;;;;0.80;0.80;;;12.70;89.00;;;;;;2049854;28;20191;-66
2021/08/02 00:05:26;;;;;;;0.70;0.70;;;12.70;88.50;;;;;;2048939;28;20270;-67
2021/08/02 00:06:36;;;;;;;0.40;0.40;;;12.70;88.50;;;;;;2056392;28;20202;-67
2021/08/02 00:07:40;;;;;;;0.52;0.52;;;12.60;88.10;;;;;;2052013;28;20202;-67
2021/08/02 00:08:41;;;;;;;0.75;0.55;;;12.70;88.80;;;;;;2056332;28;20214;-67
2021/08/02 00:09:44;;;;;;;0.40;0.40;;;12.70;87.60;;;;;;2056248;28;20242;-67
2021/08/02 00:10:48;;;;;;;0.98;0.98;;;12.70;87.50;;;;;;2056486;28;20198;-67
2021/08/02 00:12:02;;;;;;;0.73;0.73;;;12.70;87.50;;;;;;2057064;28;20371;-66
2021/08/02 00:13:13;;;;;;;1.30;1.30;;;12.70;87.50;;;;;;2056341;28;20198;-67
2021/08/02 00:14:15;;;;;;;0.75;0.75;;;12.70;87.50;;;;;;2056444;28;20217;-67
2021/08/02 00:15:18;;;;;;;0.85;0.85;;;12.70;87.10;;;;;;2056080;28;20777;-67
2021/08/02 00:16:19;;;;;;;0.65;0.63;;;12.80;87.60;;;;;;2056387;28;20262;-67
2021/08/02 00:17:20;;;;;;;1.90;0.87;;;12.80;87.70;;;;;;2056757;28;20175;-67
2021/08/02 00:18:25;;;;;;;0.75;0.75;;;12.80;87.30;;;;;;2056283;28;20666;-67
2021/08/02 00:19:26;;;;;;;0.47;0.47;;;12.80;87.60;;;;;;2056316;28;20886;-67
2021/08/02 00:20:32;;;;;;;0.50;0.50;;;12.80;87.50;;;;;;2056976;28;20255;-67
2021/08/02 00:21:33;;;;;;;0.70;0.70;;;12.80;87.50;;;;;;2056897;28;20182;-67
2021/08/02 00:22:35;;;;;;;0.70;0.70;;;12.90;87.20;;;;;;2057057;28;20262;-68
2021/08/02 00:23:35;;;;;;;1.17;0.85;;;12.90;86.90;;;;;;2056808;28;20569;-67
2021/08/02 00:24:36;;;;;;;1.00;0.90;;;12.90;86.90;;;;;;2056234;28;20225;-67
2021/08/02 00:25:38;;;;;;;0.30;0.30;;;12.90;87.10;;;;;;2056078;28;20210;-67
2021/08/02 00:26:40;;;;;;;0.68;0.68;;;12.90;87.30;;;;;;2056743;28;20194;-67
2021/08/02 00:27:40;;;;;;;1.65;1.00;;;12.90;87.10;;;;;;2056568;28;20287;-67
2021/08/02 00:28:42;;;;;;;0.77;0.77;;;12.90;87.60;;;;;;2055746;28;20175;-67
2021/08/02 00:29:43;;;;;;;1.52;1.42;;;12.90;87.40;;;;;;2055638;28;20178;-67
2021/08/02 00:30:46;;;;;;;0.80;0.73;;;12.90;87.40;;;;;;2056106;28;20175;-67
2021/08/02 00:31:47;;;;;;;0.68;0.68;;;12.90;87.50;;;;;;2048346;28;20568;-67
2021/08/02 00:32:48;;;;;;;0.40;0.40;;;12.90;87.80;;;;;;2040303;29;20191;-67
2021/08/02 00:33:48;;;;;;;0.80;0.80;;;12.80;87.80;;;;;;2048131;28;20705;-67
2021/08/02 00:34:49;;;;;;;0.60;0.60;;;12.80;88.90;;;;;;2055992;28;20203;-67
2021/08/02 00:36:01;;;;;;;0.80;0.80;;;12.80;87.80;;;;;;2056293;28;20175;-67
2021/08/02 00:37:14;;;;;;;0.80;0.80;;;12.80;88.30;;;;;;2047942;29;20695;-67
2021/08/02 00:38:34;;;;;;;0.60;0.60;;;12.80;88.60;;;;;;2050030;28;20160;-67
2021/08/02 00:40:21;;;;;;;0.60;0.60;;;12.80;88.90;;;;;;2056826;28;20251;-67
2021/08/02 00:41:27;;;;;;;0.90;0.77;;;12.80;89.40;;;;;;2056850;28;20213;-67
2021/08/02 00:42:45;;;;;;;0.90;0.80;;;12.70;89.30;;;;;;2056801;28;20259;-67
2021/08/02 00:44:26;;;;;;;0.98;0.93;;;12.70;89.80;;;;;;2056815;28;20654;-67
2021/08/02 00:45:33;;;;;;;0.55;0.55;;;12.70;90.20;;;;;;2056798;28;20186;-67
2021/08/02 00:46:40;;;;;;;0.98;0.82;;;12.70;90.10;;;;;;2056796;28;20546;-67
2021/08/02 00:47:59;;;;;;;0.43;0.43;;;12.70;90.20;;;;;;2055978;28;20180;-67
2021/08/02 00:49:06;;;;;;;2.15;0.88;;;12.60;90.30;;;;;;2056380;28;20549;-67
2021/08/02 00:50:13;;;;;;;4.00;0.77;;;12.70;90.20;;;;;;2056762;28;20183;-67
2021/08/02 00:51:14;;;;;;;0.52;0.52;;;12.70;90.40;;;;;;2056742;28;20660;-67
2021/08/02 00:52:18;;;;;;;0.80;0.80;;;12.70;90.50;;;;;;2055973;28;20198;-67
2021/08/02 00:53:23;;;;;;;0.55;0.55;;;12.70;90.50;;;;;;2048385;28;20556;-67
2021/08/02 00:54:28;;;;;;;0.68;0.68;;;12.70;90.30;;;;;;2048650;28;20168;-67
2021/08/02 00:55:34;;;;;;;3.35;1.02;;;12.70;90.50;;;;;;2056188;28;20230;-67
2021/08/02 00:56:35;;;;;;;0.68;0.63;;;12.60;90.80;;;;;;2056115;28;20216;-67
2021/08/02 00:57:40;;;;;;;0.35;0.35;;;12.60;90.80;;;;;;2055999;28;20218;-67
2021/08/02 00:58:46;;;;;;;0.85;0.85;;;12.60;90.80;;;;;;2056475;28;20198;-67
2021/08/02 00:59:50;;;;;;;1.13;0.85;;;12.60;90.80;;;;;;2056563;28;20167;-66
2021/08/02 01:00:52;;;;;;;0.63;0.60;;;12.60;90.90;;;;;;2047959;29;20678;-67
2021/08/02 01:01:54;;;;;;;0.82;0.82;;;12.50;90.90;;;;;;2048588;28;20179;-67
2021/08/02 01:02:56;;;;;;;0.50;0.50;;;12.50;90.90;;;;;;2056025;28;20183;-67
2021/08/02 01:03:58;;;;;;;0.95;0.95;;;12.50;90.90;;;;;;2055955;28;20540;-67
2021/08/02 01:04:59;;;;;;;0.30;0.30;;;12.50;90.80;;;;;;2056032;28;20261;-67
2021/08/02 01:06:00;;;;;;;2.50;0.75;;;12.60;90.90;;;;;;2056026;28;20579;-67
2021/08/02 01:07:04;;;;;;;0.80;0.70;;;12.50;90.80;;;;;;2056487;28;20183;-66
2021/08/02 01:08:15;;;;;;;0.60;0.60;;;12.50;90.70;;;;;;2056056;28;20271;-67
2021/08/02 01:09:20;;;;;;;0.52;0.52;;;12.40;90.80;;;;;;2056011;28;20171;-67
2021/08/02 01:10:21;;;;;;;0.65;0.65;;;12.40;90.90;;;;;;2056009;28;20179;-67
2021/08/02 01:11:25;;;;;;;0.85;0.85;;;12.40;90.90;;;;;;2056032;28;20213;-67
2021/08/02 01:12:28;;;;;;;0.77;0.77;;;12.40;90.80;;;;;;2056073;28;20183;-67
2021/08/02 01:13:32;;;;;;;1.23;0.82;;;12.40;90.70;;;;;;2055982;28;20175;-67
2021/08/02 01:14:34;;;;;;;0.45;0.43;;;12.40;90.60;;;;;;2055695;28;20250;-67
2021/08/02 01:15:35;;;;;;;0.47;0.47;;;12.50;90.50;;;;;;2056070;28;20179;-66
2021/08/02 01:16:40;;;;;;;0.70;0.40;;;12.50;90.50;;;;;;2056103;28;20603;-67
2021/08/02 01:17:42;;;;;;;0.40;0.40;;;12.40;90.70;;;;;;2055801;28;20186;-66
2021/08/02 01:18:45;;;;;;;0.90;0.90;;;12.40;91.00;;;;;;2056616;28;20722;-66
2021/08/02 01:19:49;;;;;;;1.10;1.00;;;12.30;91.10;;;;;;2056276;28;20567;-68
2021/08/02 01:20:53;;;;;;;0.73;0.73;;;12.30;91.00;;;;;;2055909;28;20186;-67
2021/08/02 01:21:59;;;;;;;0.68;0.68;;;12.30;91.20;;;;;;2055903;28;20171;-67
2021/08/02 01:23:05;;;;;;;1.75;1.10;;;12.30;91.20;;;;;;2056546;28;20191;-67
2021/08/02 01:24:12;;;;;;;0.30;0.30;;;12.30;91.60;;;;;;2055728;28;20183;-66
2021/08/02 01:25:37;;;;;;;0.60;0.60;;;12.30;91.10;;;;;;2055922;28;20566;-66
2021/08/02 01:26:44;;;;;;;0.45;0.45;;;12.30;91.30;;;;;;2056708;28;20559;-67
2021/08/02 01:27:47;;;;;;;0.50;0.50;;;12.30;91.30;;;;;;2056653;28;20190;-66
2021/08/02 01:29:43;;;;;;;1.00;0.70;;;12.30;91.60;;;;;;2055890;28;20551;-66
2021/08/02 01:30:56;;;;;;;2.47;1.00;;;12.20;91.60;;;;;;2056711;28;20195;-67
2021/08/02 01:31:57;;;;;;;1.23;0.60;;;12.20;91.80;;;;;;2056816;28;20206;-67
2021/08/02 01:32:57;;;;;;;0.60;0.60;;;12.20;91.80;;;;;;2056574;28;20547;-67
2021/08/02 01:33:58;;;;;;;0.67;0.67;;;12.20;91.90;;;;;;2056751;28;20175;-66
2021/08/02 01:34:59;;;;;;;0.40;0.40;;;12.20;91.90;;;;;;2055817;28;20219;-66
2021/08/02 01:36:04;;;;;;;0.40;0.40;;;12.20;91.90;;;;;;2055999;28;20179;-66
2021/08/02 01:37:05;;;;;;;0.90;0.90;;;12.10;92.00;;;;;;2056498;28;20233;-66
2021/08/02 01:38:06;;;;;;;0.40;0.40;;;12.10;92.00;;;;;;2056024;28;20183;-66
2021/08/02 01:39:06;;;;;;;0.40;0.40;;;12.10;92.00;;;;;;2056008;28;20176;-66
2021/08/02 01:40:08;;;;;;;0.50;0.50;;;12.00;92.10;;;;;;2056833;28;20175;-66
2021/08/02 01:41:09;;;;;;;0.98;0.60;;;12.00;92.00;;;;;;2057901;28;20234;-66
2021/08/02 01:42:09;;;;;;;0.83;0.83;;;12.00;92.10;;;;;;2057465;28;20245;-66
2021/08/02 01:43:10;;;;;;;0.67;0.67;;;12.10;92.00;;;;;;2057362;28;20177;-66
2021/08/02 01:44:11;;;;;;;0.37;0.37;;;12.10;91.90;;;;;;2057856;28;20171;-67
2021/08/02 01:45:12;;;;;;;0.63;0.63;;;12.10;91.80;;;;;;2058112;28;20186;-67
2021/08/02 01:46:58;;;;;;;0.65;0.63;;;12.10;91.80;;;;;;2057865;28;20179;-67
2021/08/02 01:48:15;;;;;;;0.55;0.55;;;12.10;91.90;;;;;;2048834;29;20255;-67
2021/08/02 01:49:27;;;;;;;0.57;0.57;;;12.10;91.80;;;;;;2048950;29;20199;-67
2021/08/02 01:50:42;;;;;;;0.55;0.55;;;12.10;91.70;;;;;;2055026;28;20230;-67
2021/08/02 01:51:51;;;;;;;0.60;0.60;;;12.10;91.70;;;;;;2057339;28;20228;-66
2021/08/02 01:53:12;;;;;;;0.63;0.57;;;12.10;91.90;;;;;;2057947;28;20194;-67
2021/08/02 01:54:41;;;;;;;0.43;0.43;;;12.10;91.90;;;;;;2057243;28;20167;-66
2021/08/02 01:55:49;;;;;;;0.60;0.60;;;12.10;91.90;;;;;;2057336;28;20191;-66
2021/08/02 01:57:08;;;;;;;0.40;0.40;;;12.10;92.00;;;;;;2050355;28;20172;-67
2021/08/02 01:58:10;;;;;;;0.70;0.70;;;12.00;92.00;;;;;;2057310;28;20459;-67
2021/08/02 01:59:20;;;;;;;0.70;0.70;;;12.00;92.20;;;;;;2057282;28;20179;-67
2021/08/02 02:00:22;;;;;;;1.05;0.98;;;12.00;92.80;;;;;;2057469;28;20170;-67
2021/08/02 02:01:24;;;;;;;0.68;0.68;;;11.90;92.30;;;;;;2057313;28;20528;-67
2021/08/02 02:02:27;;;;;;;0.88;0.60;;;11.90;92.20;;;;;;2057270;28;20674;-67
2021/08/02 02:03:29;;;;;;;1.30;0.50;;;11.90;92.20;;;;;;2057687;28;20183;-67
2021/08/02 02:04:50;;;;;;;1.33;1.10;;;12.00;92.20;;;;;;2059237;28;20578;-67
2021/08/02 02:06:05;;;;;;;1.02;0.80;;;11.90;92.30;;;;;;2057254;28;20170;-67
2021/08/02 02:07:08;;;;;;;0.85;0.85;;;11.90;92.40;;;;;;2057247;28;20169;-67
2021/08/02 02:08:16;;;;;;;0.32;0.32;;;11.80;92.40;;;;;;2057091;28;20179;-67
2021/08/02 02:09:18;;;;;;;0.80;0.77;;;11.90;92.30;;;;;;2057287;28;20619;-67
2021/08/02 02:10:22;;;;;;;0.50;0.50;;;11.90;92.30;;;;;;2057147;28;20194;-67
2021/08/02 02:11:25;;;;;;;0.45;0.45;;;11.90;92.30;;;;;;2049797;28;20180;-67
2021/08/02 02:12:26;;;;;;;0.60;0.60;;;11.80;92.30;;;;;;2057247;28;20594;-67
2021/08/02 02:13:42;;;;;;;2.33;0.90;;;11.80;92.40;;;;;;2057839;28;20190;-67
2021/08/02 02:14:43;;;;;;;0.40;0.40;;;11.90;92.40;;;;;;2057193;28;20238;-67
2021/08/02 02:15:48;;;;;;;0.50;0.50;;;11.90;92.30;;;;;;2057329;28;20306;-67
2021/08/02 02:16:52;;;;;;;1.02;0.90;;;11.90;92.20;;;;;;2057083;28;20185;-67
2021/08/02 02:17:53;;;;;;;0.45;0.45;;;11.90;92.00;;;;;;2057118;28;20184;-68
2021/08/02 02:18:56;;;;;;;0.60;0.60;;;11.90;92.00;;;;;;2057070;28;20621;-67
2021/08/02 02:19:58;;;;;;;0.50;0.50;;;11.90;92.00;;;;;;2049282;28;20510;-67
2021/08/02 02:21:02;;;;;;;0.68;0.68;;;11.90;92.00;;;;;;2049231;28;20180;-67
2021/08/02 02:22:04;;;;;;;0.57;0.57;;;11.90;91.90;;;;;;2057186;28;20180;-66
2021/08/02 02:23:05;;;;;;;0.75;0.75;;;11.90;92.10;;;;;;2057187;28;20191;-67
2021/08/02 02:24:06;;;;;;;0.80;0.80;;;11.90;92.00;;;;;;2049060;28;20782;-67
2021/08/02 02:25:09;;;;;;;0.60;0.60;;;11.90;92.00;;;;;;2057207;28;20179;-67
2021/08/02 02:26:11;;;;;;;0.43;0.43;;;11.90;91.90;;;;;;2064935;28;20661;-67
2021/08/02 02:27:11;;;;;;;0.90;0.90;;;11.90;92.00;;;;;;2056884;28;20689;-67
2021/08/02 02:28:13;;;;;;;0.60;0.60;;;11.80;91.90;;;;;;2057145;28;20171;-67
2021/08/02 02:29:17;;;;;;;0.60;0.60;;;11.80;91.90;;;;;;2057403;28;20673;-66
2021/08/02 02:30:18;;;;;;;3.20;0.60;;;11.80;91.90;;;;;;2057121;28;20179;-67
2021/08/02 02:31:21;;;;;;;0.70;0.70;;;11.80;91.90;;;;;;2057086;28;20262;-67
2021/08/02 02:32:24;;;;;;;0.57;0.57;;;11.80;91.80;;;;;;2057283;28;20183;-67
2021/08/02 02:33:30;;;;;;;0.88;0.80;;;11.80;91.80;;;;;;2057095;28;20646;-67
2021/08/02 02:34:33;;;;;;;0.98;0.88;;;11.80;91.70;;;;;;2056968;28;20639;-67
2021/08/02 02:35:40;;;;;;;0.50;0.50;;;11.80;91.80;;;;;;2049274;28;20643;-67
2021/08/02 02:36:43;;;;;;;0.50;0.50;;;11.80;92.30;;;;;;2056970;28;20174;-66
2021/08/02 02:37:44;;;;;;;0.57;0.40;;;11.80;91.80;;;;;;2056927;28;20551;-67
2021/08/02 02:38:46;;;;;;;7.37;1.00;;;11.80;91.90;;;;;;2057870;28;20262;-66
2021/08/02 02:39:47;;;;;;;0.57;0.57;;;11.80;92.10;;;;;;2056953;28;20429;-66
2021/08/02 02:40:48;;;;;;;0.30;0.30;;;11.80;92.20;;;;;;2056850;28;20182;-67
2021/08/02 02:41:49;;;;;;;0.88;0.80;;;11.70;92.10;;;;;;2056935;28;20178;-67
2021/08/02 02:42:50;;;;;;;0.70;0.70;;;11.80;92.70;;;;;;2056958;28;20179;-66
2021/08/02 02:43:52;;;;;;;0.85;0.70;;;11.70;92.10;;;;;;2056872;28;20209;-67
2021/08/02 02:44:54;;;;;;;0.40;0.40;;;11.70;92.30;;;;;;2056935;28;20674;-67
2021/08/02 02:45:55;;;;;;;0.55;0.55;;;11.70;92.30;;;;;;2056819;28;20282;-67
2021/08/02 02:46:56;;;;;;;0.98;0.90;;;11.70;92.20;;;;;;2056822;28;20183;-67
2021/08/02 02:47:58;;;;;;;0.50;0.50;;;11.80;92.20;;;;;;2056859;28;20207;-66
2021/08/02 02:49:00;;;;;;;0.57;0.57;;;11.80;92.20;;;;;;2056836;28;20186;-67
2021/08/02 02:50:03;;;;;;;0.60;0.60;;;11.70;92.20;;;;;;2057366;28;20187;-67
2021/08/02 02:51:05;;;;;;;0.40;0.40;;;11.70;92.20;;;;;;2056756;28;20218;-66
2021/08/02 02:52:07;;;;;;;1.02;1.02;;;11.70;92.20;;;;;;2048240;28;20180;-67
2021/08/02 02:53:10;;;;;;;0.60;0.60;;;11.70;92.20;;;;;;2056827;28;20270;-67
2021/08/02 02:54:11;;;;;;;1.48;1.38;;;11.70;92.20;;;;;;2056696;28;20186;-67
2021/08/02 02:55:13;;;;;;;0.40;0.40;;;11.70;92.20;;;;;;2056800;28;20261;-67
2021/08/02 02:56:16;;;;;;;0.80;0.80;;;11.70;92.30;;;;;;2056596;28;20185;-67
2021/08/02 02:57:17;;;;;;;0.50;0.50;;;11.70;92.30;;;;;;2056738;28;20183;-67
2021/08/02 02:58:18;;;;;;;0.30;0.30;;;11.70;92.20;;;;;;2056509;28;20181;-67
2021/08/02 02:59:19;;;;;;;0.50;0.40;;;11.70;92.20;;;;;;2061255;28;20186;-67
2021/08/02 03:00:20;;;;;;;0.80;0.80;;;11.70;92.30;;;;;;2064618;28;20652;-67
2021/08/02 03:01:27;;;;;;;0.90;0.77;;;11.70;92.20;;;;;;2065254;28;20532;-67
2021/08/02 03:02:29;;;;;;;0.95;0.95;;;11.70;92.20;;;;;;2064623;28;20181;-67
2021/08/02 03:03:37;;;;;;;0.68;0.68;;;11.60;92.20;;;;;;2064725;28;20183;-66
2021/08/02 03:04:44;;;;;;;0.82;0.52;;;11.60;92.20;;;;;;2064474;28;20692;-67
2021/08/02 03:05:45;;;;;;;0.73;0.73;;;11.60;92.20;;;;;;2064705;28;20257;-66
2021/08/02 03:06:47;;;;;;;0.60;0.60;;;11.60;92.20;;;;;;2064609;28;20183;-67
2021/08/02 03:07:56;;;;;;;0.68;0.60;;;11.60;92.30;;;;;;2065061;28;20198;-67
2021/08/02 03:08:58;;;;;;;6.20;1.15;;;11.60;92.20;;;;;;2064763;28;20205;-66
2021/08/02 03:10:00;;;;;;;0.60;0.60;;;11.50;92.30;;;;;;2057045;28;20724;-67
2021/08/02 03:11:04;;;;;;;1.30;0.93;;;11.60;92.20;;;;;;2056857;28;20179;-67
2021/08/02 03:12:06;;;;;;;0.70;0.70;;;11.60;92.20;;;;;;2064784;28;20266;-67
2021/08/02 03:13:07;;;;;;;0.60;0.60;;;11.60;92.20;;;;;;2064618;28;20174;-67
2021/08/02 03:14:07;;;;;;;0.90;0.90;;;11.60;92.10;;;;;;2064482;28;20206;-67
2021/08/02 03:15:09;;;;;;;0.50;0.50;;;11.60;92.20;;;;;;2064435;28;20206;-66
2021/08/02 03:16:09;;;;;;;0.70;0.70;;;11.50;92.20;;;;;;2064504;28;20179;-67
2021/08/02 03:17:10;;;;;;;0.93;0.93;;;11.50;92.30;;;;;;2064393;28;20649;-67
2021/08/02 03:18:11;;;;;;;0.83;0.83;;;11.50;92.60;;;;;;2065124;28;20190;-67
2021/08/02 03:19:12;;;;;;;1.00;0.70;;;11.50;92.40;;;;;;2064986;28;20182;-67
2021/08/02 03:20:14;;;;;;;1.87;1.23;;;11.40;92.30;;;;;;2065155;28;20204;-67
2021/08/02 03:21:16;;;;;;;0.55;0.55;;;11.50;92.30;;;;;;2065099;28;20186;-67
2021/08/02 03:22:34;;;;;;;1.08;1.00;;;11.50;92.40;;;;;;2065097;28;20194;-67
2021/08/02 03:24:05;;;;;;;0.40;0.40;;;11.40;92.40;;;;;;2064442;28;20644;-66
2021/08/02 03:25:35;;;;;;;0.55;0.55;;;11.40;92.60;;;;;;2064456;28;20345;-67
2021/08/02 03:26:58;;;;;;;0.45;0.45;;;11.30;92.70;;;;;;2064525;28;20166;-67
2021/08/02 03:28:33;;;;;;;0.47;0.47;;;11.30;92.80;;;;;;2064557;28;20182;-67
2021/08/02 03:29:40;;;;;;;0.90;0.65;;;11.20;93.10;;;;;;2064313;28;20298;-67
2021/08/02 03:30:43;;;;;;;0.38;0.38;;;11.20;93.20;;;;;;2064682;28;20205;-67
2021/08/02 03:32:02;;;;;;;0.80;0.80;;;11.20;93.20;;;;;;2064387;28;20188;-67
2021/08/02 03:33:09;;;;;;;0.70;0.70;;;11.20;93.30;;;;;;2058949;28;20167;-67
2021/08/02 03:34:21;;;;;;;0.52;0.52;;;11.20;93.20;;;;;;2056998;28;20303;-67
2021/08/02 03:35:23;;;;;;;1.17;1.13;;;11.30;93.20;;;;;;2057850;28;20215;-66
2021/08/02 03:36:24;;;;;;;1.23;1.13;;;11.30;93.10;;;;;;2064379;28;20178;-67
2021/08/02 03:37:26;;;;;;;0.93;0.90;;;11.30;93.10;;;;;;2064248;28;20171;-67
2021/08/02 03:38:27;;;;;;;1.40;0.77;;;11.40;93.00;;;;;;2064360;28;20182;-67
2021/08/02 03:39:29;;;;;;;0.70;0.70;;;11.40;92.80;;;;;;2064196;28;20174;-66
2021/08/02 03:40:30;;;;;;;1.02;1.02;;;11.40;92.70;;;;;;2064275;28;20178;-67
2021/08/02 03:41:31;;;;;;;1.47;1.37;;;11.40;92.60;;;;;;2064348;28;20269;-66
2021/08/02 03:42:35;;;;;;;0.63;0.63;;;11.40;92.60;;;;;;2064327;28;20177;-67
2021/08/02 03:43:37;;;;;;;4.88;1.80;;;11.40;92.50;;;;;;2064373;28;20186;-67
2021/08/02 03:44:37;;;;;;;0.63;0.60;;;11.30;92.50;;;;;;2056132;28;20733;-67
2021/08/02 03:45:40;;;;;;;0.40;0.40;;;11.30;92.50;;;;;;2056302;28;20179;-67
2021/08/02 03:46:41;;;;;;;0.60;0.60;;;11.30;92.50;;;;;;2064152;28;20175;-67
2021/08/02 03:47:43;;;;;;;0.70;0.70;;;11.30;92.50;;;;;;2064685;28;20190;-67
2021/08/02 03:48:44;;;;;;;0.73;0.73;;;11.30;92.50;;;;;;2064848;28;20171;-67
2021/08/02 03:49:47;;;;;;;1.08;1.02;;;11.30;92.70;;;;;;2064202;28;20202;-67
2021/08/02 03:50:47;;;;;;;0.57;0.57;;;11.20;92.70;;;;;;2064238;28;20260;-67
2021/08/02 03:51:55;;;;;;;0.53;0.53;;;11.20;92.70;;;;;;2064282;28;20234;-66
2021/08/02 03:52:56;;;;;;;1.88;0.85;;;11.20;92.70;;;;;;2064868;28;20182;-66
2021/08/02 03:53:56;;;;;;;0.73;0.73;;;11.20;92.70;;;;;;2064192;28;20675;-67
2021/08/02 03:54:57;;;;;;;1.70;0.90;;;11.30;92.70;;;;;;2062477;28;20214;-67
2021/08/02 03:55:58;;;;;;;1.13;1.00;;;11.30;92.60;;;;;;2057336;28;20179;-67
2021/08/02 03:57:01;;;;;;;0.87;0.77;;;11.20;92.80;;;;;;2056054;28;20230;-67
2021/08/02 03:58:05;;;;;;;0.60;0.60;;;11.10;92.90;;;;;;2056858;28;20186;-67
2021/08/02 03:59:06;;;;;;;1.15;0.63;;;11.10;93.00;;;;;;2056084;28;20190;-67
2021/08/02 04:00:07;;;;;;;0.60;0.60;;;11.10;93.00;;;;;;2056218;28;20185;-66
2021/08/02 04:01:09;;;;;;;0.38;0.38;;;11.10;93.00;;;;;;2056878;28;20182;-67
2021/08/02 04:02:10;;;;;;;0.60;0.60;;;11.10;93.00;;;;;;2056213;28;20193;-67
2021/08/02 04:03:11;;;;;;;0.77;0.77;;;11.10;93.00;;;;;;2056105;28;20688;-67
2021/08/02 04:04:13;;;;;;;0.70;0.70;;;11.10;93.00;;;;;;2056114;28;20214;-66
2021/08/02 04:05:13;;;;;;;0.68;0.68;;;11.10;93.50;;;;;;2048400;28;20262;-67
2021/08/02 04:06:14;;;;;;;2.60;1.60;;;11.20;93.00;;;;;;2056198;28;20191;-67
2021/08/02 04:07:15;;;;;;;0.47;0.40;;;11.20;92.90;;;;;;2056620;28;20179;-66
2021/08/02 04:08:15;;;;;;;0.40;0.40;;;11.20;93.30;;;;;;2056193;28;20464;-66
2021/08/02 04:09:16;;;;;;;0.83;0.83;;;11.20;92.90;;;;;;2056027;28;20257;-67
2021/08/02 04:10:17;;;;;;;1.30;1.20;;;11.20;93.20;;;;;;2056745;28;20175;-67
2021/08/02 04:11:18;;;;;;;1.30;1.20;;;11.20;93.20;;;;;;2056705;28;20190;-66
2021/08/02 04:12:18;;;;;;;1.03;1.03;;;11.20;93.10;;;;;;2056736;28;20265;-67
2021/08/02 04:13:19;;;;;;;0.73;0.57;;;11.20;93.00;;;;;;2056720;28;20203;-67
2021/08/02 04:14:20;;;;;;;0.57;0.57;;;11.20;93.00;;;;;;2056027;28;20610;-67
2021/08/02 04:15:21;;;;;;;0.50;0.50;;;11.20;92.90;;;;;;2056060;28;20780;-67
2021/08/02 04:16:23;;;;;;;0.97;0.53;;;11.20;92.90;;;;;;2056759;28;20186;-67
2021/08/02 04:17:24;;;;;;;0.82;0.73;;;11.10;92.90;;;;;;2056613;28;20427;-67
2021/08/02 04:18:24;;;;;;;0.70;0.70;;;11.20;93.00;;;;;;2056743;28;20659;-66
2021/08/02 04:19:25;;;;;;;0.77;0.77;;;11.20;93.00;;;;;;2056620;28;20200;-67
2021/08/02 04:20:26;;;;;;;0.70;0.70;;;11.20;92.90;;;;;;2056789;28;20646;-67
2021/08/02 04:21:27;;;;;;;0.70;0.70;;;11.20;92.90;;;;;;2056638;28;20191;-66
2021/08/02 04:22:27;;;;;;;0.63;0.63;;;11.30;92.90;;;;;;2056700;28;20175;-67
2021/08/02 04:23:28;;;;;;;0.87;0.80;;;11.30;92.80;;;;;;2056699;28;20174;-67
2021/08/02 04:24:29;;;;;;;0.63;0.63;;;11.30;92.70;;;;;;2056408;28;20214;-67
2021/08/02 04:25:29;;;;;;;2.00;0.53;;;11.20;92.70;;;;;;2056654;28;20267;-67
2021/08/02 04:26:30;;;;;;;0.43;0.43;;;11.30;92.70;;;;;;2056634;28;20210;-67
2021/08/02 04:27:31;;;;;;;0.97;0.93;;;11.30;92.60;;;;;;2056516;28;20190;-67
2021/08/02 04:28:32;;;;;;;0.53;0.53;;;11.40;92.60;;;;;;2056722;28;20468;-66
2021/08/02 04:29:32;;;;;;;0.50;0.50;;;11.40;92.50;;;;;;2056690;28;20179;-66
2021/08/02 04:30:33;;;;;;;0.67;0.67;;;11.40;92.50;;;;;;2056727;28;20187;-67
2021/08/02 04:31:34;;;;;;;0.70;0.70;;;11.40;92.60;;;;;;2056832;28;20701;-67
2021/08/02 04:32:35;;;;;;;1.03;1.03;;;11.40;92.60;;;;;;2056080;28;20266;-67
2021/08/02 04:33:37;;;;;;;0.60;0.60;;;11.40;92.50;;;;;;2056219;28;20640;-66
2021/08/02 04:34:38;;;;;;;0.68;0.68;;;11.40;92.40;;;;;;2055952;28;20203;-67
2021/08/02 04:35:41;;;;;;;1.03;0.67;;;11.40;92.50;;;;;;2056176;28;20230;-67
2021/08/02 04:36:41;;;;;;;0.85;0.85;;;11.40;92.40;;;;;;2056715;28;20174;-67
2021/08/02 04:37:42;;;;;;;1.50;1.17;;;11.40;92.40;;;;;;2056599;28;20654;-67
2021/08/02 04:38:43;;;;;;;1.07;0.97;;;11.40;92.40;;;;;;2055946;28;20270;-67
2021/08/02 04:39:43;;;;;;;0.73;0.73;;;11.40;92.30;;;;;;2056000;28;20672;-67
2021/08/02 04:40:45;;;;;;;1.00;0.87;;;11.40;92.30;;;;;;2056055;28;20191;-67
2021/08/02 04:41:45;;;;;;;1.25;1.08;;;11.40;92.30;;;;;;2056080;28;20174;-67
2021/08/02 04:42:46;;;;;;;1.97;0.97;;;11.40;92.40;;;;;;2056038;28;20391;-67
2021/08/02 04:43:47;;;;;;;0.70;0.70;;;11.40;92.30;;;;;;2056000;28;20254;-67
2021/08/02 04:44:47;;;;;;;0.87;0.67;;;11.40;92.30;;;;;;2056522;28;20225;-66
2021/08/02 04:45:48;;;;;;;0.70;0.70;;;11.40;92.40;;;;;;2056685;28;20713;-67
2021/08/02 04:46:49;;;;;;;0.37;0.37;;;11.40;92.50;;;;;;2055877;28;20262;-67
2021/08/02 04:47:50;;;;;;;5.13;1.10;;;11.40;92.50;;;;;;2056081;28;20253;-67
2021/08/02 04:48:51;;;;;;;0.47;0.47;;;11.30;92.50;;;;;;2056500;28;20219;-67
2021/08/02 04:49:52;;;;;;;1.13;1.03;;;11.30;92.50;;;;;;2056576;28;20202;-67
2021/08/02 04:50:52;;;;;;;0.63;0.63;;;11.30;92.40;;;;;;2056562;28;20210;-66
2021/08/02 04:51:53;;;;;;;0.70;0.70;;;11.20;92.60;;;;;;2056648;28;20281;-67
2021/08/02 04:52:54;;;;;;;0.80;0.80;;;11.20;92.80;;;;;;2056656;28;20237;-67
2021/08/02 04:53:55;;;;;;;0.57;0.57;;;11.30;92.80;;;;;;2056613;28;20712;-67
2021/08/02 04:54:56;;;;;;;0.67;0.67;;;11.30;92.90;;;;;;2056355;28;20215;-67
2021/08/02 04:55:57;;;;;;;0.45;0.45;;;11.30;92.80;;;;;;2050056;28;20575;-67
2021/08/02 04:56:58;;;;;;;1.07;1.03;;;11.30;92.80;;;;;;2048232;28;20190;-67
2021/08/02 04:57:58;;;;;;;0.60;0.40;;;11.40;92.60;;;;;;2048614;28;20833;-67
2021/08/02 04:58:59;;;;;;;1.23;1.10;;;11.40;92.50;;;;;;2048484;28;20203;-66
2021/08/02 05:00:00;;;;;;;2.23;0.83;;;11.50;92.30;;;;;;2047833;29;20217;-67
2021/08/02 05:01:01;;;;;;;0.57;0.57;;;11.50;92.30;;;;;;2047982;29;20260;-67
2021/08/02 05:02:01;;;;;;;1.80;1.07;;;11.60;92.40;;;;;;2048536;28;20555;-67
2021/08/02 05:03:02;;;;;;;0.57;0.57;;;11.60;92.30;;;;;;2048445;28;20633;-67
2021/08/02 05:04:03;;;;;;;0.70;0.70;;;11.60;92.20;;;;;;2048320;28;20194;-66
2021/08/02 05:05:04;;;;;;;0.70;0.70;;;11.70;92.20;;;;;;2048467;28;20204;-67
2021/08/02 05:06:05;;;;;;;0.85;0.57;;;11.70;92.10;;;;;;2047849;29;20217;-67
2021/08/02 05:07:06;;;;;;;0.40;0.40;;;11.70;92.10;;;;;;2047781;29;20183;-66
2021/08/02 05:08:07;;;;;;;6.83;1.27;;;11.60;92.10;;;;;;2048447;28;20663;-67
2021/08/02 05:09:08;;;;;;;0.80;0.80;;;11.60;92.20;;;;;;2048457;28;20238;-67
2021/08/02 05:10:09;;;;;;;0.70;0.70;;;11.50;92.20;;;;;;2048512;28;20673;-67
2021/08/02 05:11:10;;;;;;;0.90;0.90;;;11.50;92.10;;;;;;2048562;29;20195;-67
2021/08/02 05:12:11;;;;;;;0.53;0.53;;;11.50;92.10;;;;;;2048386;28;20203;-66
2021/08/02 05:13:12;;;;;;;0.75;0.75;;;11.60;92.10;;;;;;2048472;28;20265;-67
2021/08/02 05:14:12;;;;;;;1.87;1.33;;;11.60;92.10;;;;;;2048323;28;20228;-67
2021/08/02 05:15:13;;;;;;;0.50;0.50;;;11.60;92.10;;;;;;2048646;28;20211;-67
2021/08/02 05:16:15;;;;;;;1.03;0.83;;;11.70;92.10;;;;;;2049830;28;20223;-66
2021/08/02 05:17:15;;;;;;;0.70;0.70;;;11.70;92.10;;;;;;2049415;29;20172;-67
2021/08/02 05:18:16;;;;;;;0.70;0.70;;;11.80;92.00;;;;;;2049282;29;20179;-67
2021/08/02 05:19:17;;;;;;;0.53;0.53;;;11.80;91.80;;;;;;2049915;28;20180;-67
2021/08/02 05:20:19;;;;;;;0.97;0.97;;;11.80;91.70;;;;;;2049898;28;20226;-66
2021/08/02 05:21:19;;;;;;;0.40;0.38;;;11.90;91.60;;;;;;2049887;28;20172;-67
2021/08/02 05:22:20;;;;;;;0.70;0.70;;;12.00;91.50;;;;;;2049821;29;20195;-67
2021/08/02 05:23:21;;;;;;;0.20;0.20;;;12.00;91.50;;;;;;2050176;29;20171;-67
2021/08/02 05:24:22;;;;;;;0.70;0.70;;;12.00;91.50;;;;;;2049674;28;20184;-67
2021/08/02 05:25:22;;;;;;;0.50;0.50;;;12.10;91.50;;;;;;2049923;29;20176;-67
2021/08/02 05:26:23;;;;;;;3.03;1.03;;;12.20;91.40;;;;;;2049677;28;20176;-67
2021/08/02 05:27:24;;;;;;;0.73;0.73;;;12.20;91.30;;;;;;2049199;29;20238;-67
2021/08/02 05:28:25;;;;;;;0.53;0.53;;;12.30;91.20;;;;;;2041370;29;20516;-67
2021/08/02 05:29:25;;;;;;;0.93;0.50;;;12.30;91.00;;;;;;2049282;28;20179;-67
2021/08/02 05:30:27;;;;;;;0.57;0.57;;;12.40;90.90;;;;;;2049796;28;20234;-66
2021/08/02 05:31:27;;;;;;;0.90;0.82;;;12.40;90.70;;;;;;2049346;29;20187;-66
2021/08/02 05:32:28;;;;;;;0.70;0.70;;;12.50;90.60;;;;;;2049225;29;20566;-67
2021/08/02 05:33:29;;;;;;;1.07;0.97;;;12.60;90.50;;;;;;2049867;28;20195;-67
2021/08/02 05:34:30;;;;;;;0.80;0.80;;;12.70;90.50;;;;;;2049805;28;20251;-67